Time;durP1;ratioP1;P1;durP2;ratioP2;P2;SDS_P1;SDS_P2;PMS_P1;PMS_P2;Temp;Humidity;BMP_temperature;BMP_pressure;BME280_temperature;BME280_humidity;BME280_pressure;Samples;Min_cycle;Max_cycle;Signal;HPM_P1;HPM_P2
2023/08/24 00:01:43;;;;;;;6.65;4.30;;;;;;;18.45;100.00;99840.84;5049795;28;20040;-93
2023/08/24 00:04:09;;;;;;;4.93;3.85;;;;;;;18.48;99.97;99845.88;5050165;28;20463;-92
2023/08/24 00:06:34;;;;;;;7.40;4.00;;;;;;;18.39;99.99;99839.53;5049903;28;20130;-92
2023/08/24 00:09:00;;;;;;;8.35;3.97;;;;;;;18.39;100.00;99843.94;5050071;28;20033;-93
2023/08/24 00:11:25;;;;;;;4.10;3.50;;;;;;;18.40;100.00;99845.63;5049680;28;20033;-92
2023/08/24 00:13:52;;;;;;;6.38;4.53;;;;;;;18.37;100.00;99848.50;5050075;28;20029;-91
2023/08/24 00:16:19;;;;;;;5.72;3.80;;;;;;;18.26;100.00;99830.84;5049839;28;20029;-92
2023/08/24 00:18:44;;;;;;;6.60;3.70;;;;;;;18.37;100.00;99853.75;5050024;28;20028;-92
2023/08/24 00:21:11;;;;;;;5.50;3.78;;;;;;;18.27;100.00;99847.53;5049854;28;20033;-92
2023/08/24 00:23:37;;;;;;;5.30;3.88;;;;;;;18.18;100.00;99843.78;5049591;28;20056;-91
2023/08/24 00:26:03;;;;;;;5.28;3.90;;;;;;;18.25;100.00;99854.72;5049719;28;20029;-91
2023/08/24 00:28:28;;;;;;;8.90;4.10;;;;;;;18.26;100.00;99854.59;5049610;28;20029;-92
2023/08/24 00:30:54;;;;;;;4.82;4.22;;;;;;;18.18;100.00;99844.63;5049816;28;20033;-93
2023/08/24 00:33:19;;;;;;;5.53;3.92;;;;;;;18.17;100.00;99842.94;5049735;28;20025;-92
2023/08/24 00:35:45;;;;;;;5.13;4.35;;;;;;;18.19;100.00;99851.56;5049544;28;20123;-92
2023/08/24 00:38:11;;;;;;;5.38;3.72;;;;;;;18.13;100.00;99840.66;5049725;28;20053;-92
2023/08/24 00:40:38;;;;;;;4.47;4.07;;;;;;;18.15;100.00;99847.47;5049647;28;20056;-92
2023/08/24 00:43:04;;;;;;;4.88;3.40;;;;;;;18.13;100.00;99845.94;5049595;28;20507;-92
2023/08/24 00:45:32;;;;;;;5.38;3.97;;;;;;;18.13;100.00;99859.09;5052940;28;20064;-92
2023/08/24 00:47:57;;;;;;;4.85;4.22;;;;;;;18.13;100.00;99857.31;5053795;28;20375;-92
2023/08/24 00:50:23;;;;;;;4.45;3.90;;;;;;;18.12;100.00;99853.00;5053250;28;20116;-92
2023/08/24 00:52:49;;;;;;;6.72;4.13;;;;;;;18.15;100.00;99851.91;5052894;28;20033;-92
2023/08/24 00:55:16;;;;;;;8.43;4.53;;;;;;;18.12;100.00;99849.53;5052812;28;20025;-92
2023/08/24 00:57:42;;;;;;;7.45;4.22;;;;;;;18.08;100.00;99848.06;5052774;28;20381;-92
2023/08/24 01:00:11;;;;;;;4.10;3.70;;;;;;;18.06;100.00;99849.97;5052808;28;20044;-92
2023/08/24 01:02:39;;;;;;;4.47;3.72;;;;;;;18.07;100.00;99851.63;5052881;28;20473;-92
2023/08/24 01:05:06;;;;;;;6.45;4.15;;;;;;;18.05;100.00;99843.03;5052741;28;20397;-92
2023/08/24 01:07:37;;;;;;;5.80;4.60;;;;;;;17.80;100.00;99817.66;5052846;28;20021;-92
2023/08/24 01:10:24;;;;;;;5.30;3.72;;;;;;;17.96;100.00;99839.28;5052869;28;20037;-92
2023/08/24 01:13:10;;;;;;;7.03;3.92;;;;;;;17.94;100.00;99842.00;5014605;28;20033;-92
2023/08/24 01:15:50;;;;;;;7.45;4.40;;;;;;;17.96;100.00;99847.19;5014647;28;20048;-92
2023/08/24 01:18:20;;;;;;;4.85;4.35;;;;;;;17.95;100.00;99837.59;5014925;28;20403;-92
2023/08/24 01:20:47;;;;;;;7.60;4.88;;;;;;;17.81;100.00;99827.22;5014587;28;20060;-92
2023/08/24 01:23:30;;;;;;;5.57;4.55;;;;;;;17.87;100.00;99837.31;5014924;28;20026;-92
2023/08/24 01:26:17;;;;;;;6.80;4.53;;;;;;;17.81;100.00;99838.59;4972584;28;20039;-92
2023/08/24 01:28:45;;;;;;;5.38;4.43;;;;;;;17.74;100.00;99828.59;4956486;28;20393;-92
2023/08/24 01:31:10;;;;;;;7.13;4.80;;;;;;;17.81;100.00;99843.03;4956063;28;20402;-92
2023/08/24 01:33:36;;;;;;;5.28;4.50;;;;;;;17.80;100.00;99841.34;4956105;28;20035;-92
2023/08/24 01:36:02;;;;;;;10.20;4.60;;;;;;;17.75;100.00;99830.31;4933835;29;20099;-92
2023/08/24 01:38:29;;;;;;;6.53;4.78;;;;;;;17.74;100.00;99832.13;4933487;29;20039;-92
2023/08/24 01:41:23;;;;;;;4.93;4.35;;;;;;;17.76;100.00;99832.00;4933605;29;20452;-92
2023/08/24 01:43:53;;;;;;;5.30;4.13;;;;;;;17.73;100.00;99834.81;4933925;29;20527;-92
2023/08/24 01:46:21;;;;;;;5.10;3.72;;;;;;;17.69;100.00;99827.13;4933452;29;20488;-91
2023/08/24 01:48:48;;;;;;;6.80;4.65;;;;;;;17.64;100.00;99817.88;4933337;29;20086;-91
2023/08/24 01:51:14;;;;;;;7.18;4.80;;;;;;;17.62;100.00;99814.53;4950568;29;20050;-92
2023/08/24 01:53:41;;;;;;;4.93;4.25;;;;;;;17.56;100.00;99799.16;4952508;29;20053;-92
2023/08/24 01:56:15;;;;;;;6.60;4.18;;;;;;;17.63;100.00;99816.22;4960300;28;20453;-92
2023/08/24 01:58:41;;;;;;;7.95;4.22;;;;;;;17.62;100.00;99822.44;4994314;28;20488;-93
2023/08/24 02:01:08;;;;;;;5.40;4.40;;;;;;;17.44;100.00;99793.00;4994500;28;20061;-92
2023/08/24 02:03:33;;;;;;;5.32;4.15;;;;;;;17.59;100.00;99820.03;4994021;28;20101;-92
2023/08/24 02:05:59;;;;;;;4.88;4.40;;;;;;;17.59;100.00;99823.50;4997037;28;20260;-92
2023/08/24 02:08:25;;;;;;;5.30;4.80;;;;;;;17.52;100.00;99810.88;5051892;28;20060;-92
2023/08/24 02:10:50;;;;;;;5.28;4.70;;;;;;;17.51;100.00;99822.38;5051366;28;20381;-92
2023/08/24 02:13:16;;;;;;;5.15;4.20;;;;;;;17.44;100.00;99806.16;5051524;28;20083;-92
2023/08/24 02:15:41;;;;;;;7.35;4.68;;;;;;;17.49;100.00;99825.13;5051580;28;20040;-91
2023/08/24 02:18:08;;;;;;;6.75;4.60;;;;;;;17.44;100.00;99825.47;5051690;28;20028;-92
2023/08/24 02:20:40;;;;;;;5.72;4.57;;;;;;;17.38;100.00;99812.72;5051355;28;20025;-92
2023/08/24 02:23:06;;;;;;;6.13;4.63;;;;;;;17.41;100.00;99827.47;5030205;28;20124;-92
2023/08/24 02:25:32;;;;;;;7.40;4.45;;;;;;;17.34;100.00;99821.78;5029857;28;20140;-91
2023/08/24 02:27:58;;;;;;;6.35;4.90;;;;;;;17.39;100.00;99837.25;5013730;28;20586;-92
2023/08/24 02:30:24;;;;;;;5.90;5.00;;;;;;;17.21;100.00;99818.38;5013492;28;20083;-92
2023/08/24 02:32:50;;;;;;;5.35;4.60;;;;;;;17.11;100.00;99806.81;5013182;28;20053;-91
2023/08/24 02:35:17;;;;;;;8.15;5.70;;;;;;;17.28;100.00;99837.22;5013631;28;20392;-92
2023/08/24 02:37:43;;;;;;;6.05;4.70;;;;;;;17.29;100.00;99839.72;5013245;28;20077;-92
2023/08/24 02:40:09;;;;;;;6.10;5.03;;;;;;;17.30;100.00;99838.75;5029990;28;20048;-91
2023/08/24 02:42:35;;;;;;;6.53;5.03;;;;;;;17.25;100.00;99827.72;5029570;28;20516;-91
2023/08/24 02:45:01;;;;;;;5.38;4.88;;;;;;;17.30;100.00;99841.41;5013352;28;20041;-92
2023/08/24 02:47:26;;;;;;;5.90;5.30;;;;;;;17.29;100.00;99834.47;5029834;28;20021;-91
2023/08/24 02:49:52;;;;;;;6.90;5.65;;;;;;;17.29;100.00;99839.72;5029436;28;20068;-91
2023/08/24 02:52:18;;;;;;;8.25;6.43;;;;;;;17.28;100.00;99835.41;5029583;28;20021;-92
2023/08/24 02:54:43;;;;;;;6.53;5.80;;;;;;;17.16;100.00;99810.81;5045491;28;20033;-92
2023/08/24 02:57:09;;;;;;;5.95;4.75;;;;;;;17.28;100.00;99827.50;5050972;28;20036;-92
2023/08/24 02:59:34;;;;;;;6.65;5.57;;;;;;;17.26;100.00;99832.03;5050468;28;20029;-92
2023/08/24 03:02:00;;;;;;;8.35;5.47;;;;;;;17.24;100.00;99826.06;5050802;28;20039;-91
2023/08/24 03:04:27;;;;;;;9.50;5.85;;;;;;;17.25;100.00;99837.41;5052019;28;20048;-92
2023/08/24 03:06:52;;;;;;;6.45;5.82;;;;;;;17.12;100.00;99808.50;5053192;28;20032;-92
2023/08/24 03:09:18;;;;;;;7.43;6.72;;;;;;;17.20;100.00;99827.22;5053846;28;20033;-92
2023/08/24 03:11:44;;;;;;;6.88;5.88;;;;;;;17.18;100.00;99818.56;5053932;28;20039;-92
2023/08/24 03:14:09;;;;;;;8.13;5.90;;;;;;;17.17;100.00;99820.38;5054195;28;20055;-92
2023/08/24 03:16:38;;;;;;;7.55;5.95;;;;;;;17.07;100.00;99806.19;5053576;28;20388;-92
2023/08/24 03:19:04;;;;;;;6.60;5.50;;;;;;;17.13;100.00;99825.97;5053753;28;20021;-92
2023/08/24 03:21:30;;;;;;;8.02;5.75;;;;;;;17.09;100.00;99821.88;5053654;28;20396;-92
2023/08/24 03:23:56;;;;;;;6.70;6.00;;;;;;;17.11;100.00;99827.88;5053829;28;20097;-93
2023/08/24 03:26:23;;;;;;;9.98;6.82;;;;;;;17.05;100.00;99817.78;5053991;28;20440;-92
2023/08/24 03:28:49;;;;;;;8.07;6.35;;;;;;;16.99;100.00;99816.41;5053723;28;20036;-92
2023/08/24 03:31:14;;;;;;;8.20;6.55;;;;;;;16.99;100.00;99821.69;5053856;28;20078;-92
2023/08/24 03:33:40;;;;;;;8.27;6.10;;;;;;;16.89;100.00;99815.38;5053382;28;20028;-92
2023/08/24 03:36:05;;;;;;;6.80;6.15;;;;;;;16.96;100.00;99827.16;5053632;28;20088;-92
2023/08/24 03:38:31;;;;;;;7.35;5.82;;;;;;;16.89;100.00;99812.75;5053841;28;20059;-91
2023/08/24 03:41:02;;;;;;;9.23;6.68;;;;;;;16.82;100.00;99803.63;5053432;28;20094;-92
2023/08/24 03:43:28;;;;;;;8.73;6.10;;;;;;;16.87;100.00;99823.38;5053724;28;20127;-92
2023/08/24 03:45:54;;;;;;;7.82;6.75;;;;;;;16.85;100.00;99817.38;5053257;28;20419;-92
2023/08/24 03:48:20;;;;;;;9.15;6.85;;;;;;;16.82;100.00;99814.13;5053529;28;20082;-92
2023/08/24 03:50:45;;;;;;;7.32;6.25;;;;;;;16.77;100.00;99810.97;5053091;28;20082;-92
2023/08/24 03:53:11;;;;;;;9.35;6.65;;;;;;;16.80;100.00;99818.66;5053634;28;20472;-92
2023/08/24 03:55:36;;;;;;;9.02;6.13;;;;;;;16.79;100.00;99830.97;5053175;28;20033;-91
2023/08/24 03:58:03;;;;;;;8.07;5.90;;;;;;;16.79;100.00;99820.44;5053547;28;20115;-92
2023/08/24 04:00:28;;;;;;;7.65;6.13;;;;;;;16.78;100.00;99818.75;5053604;28;20033;-92
2023/08/24 04:02:54;;;;;;;9.13;7.00;;;;;;;16.76;100.00;99814.53;5053144;28;20028;-92
2023/08/24 04:05:19;;;;;;;8.27;6.38;;;;;;;16.79;100.00;99824.88;5052989;28;20478;-92
2023/08/24 04:07:45;;;;;;;8.57;6.35;;;;;;;16.71;100.00;99807.78;5053161;28;20032;-92
2023/08/24 04:10:11;;;;;;;7.50;6.57;;;;;;;16.79;100.00;99824.88;5053348;28;20060;-91
2023/08/24 04:12:36;;;;;;;7.63;6.15;;;;;;;16.78;100.00;99820.56;5053291;28;20024;-91
2023/08/24 04:15:02;;;;;;;7.10;6.00;;;;;;;16.81;100.00;99830.84;5053167;28;20031;-91
2023/08/24 04:17:28;;;;;;;8.73;7.70;;;;;;;16.78;100.00;99825.81;5053273;28;20043;-91
2023/08/24 04:19:53;;;;;;;10.13;7.38;;;;;;;16.81;100.00;99836.09;5055923;28;20085;-91
2023/08/24 04:22:19;;;;;;;7.15;6.45;;;;;;;16.81;100.00;99836.97;5056720;28;20028;-91
2023/08/24 04:24:44;;;;;;;7.18;6.47;;;;;;;16.89;100.00;99836.41;5056658;28;20399;-90
2023/08/24 04:27:09;;;;;;;8.77;6.38;;;;;;;16.90;100.00;99833.69;5056421;28;20074;-90
2023/08/24 04:29:35;;;;;;;8.57;5.80;;;;;;;16.99;100.00;99848.00;5053736;28;20040;-90
2023/08/24 04:32:00;;;;;;;6.80;6.05;;;;;;;17.03;100.00;99854.72;5036854;28;20024;-90
2023/08/24 04:34:26;;;;;;;8.05;6.40;;;;;;;17.03;100.00;99828.41;5052286;28;20302;-90
2023/08/24 04:36:51;;;;;;;6.90;6.20;;;;;;;17.11;100.00;99835.78;5052087;28;20037;-90
2023/08/24 04:39:18;;;;;;;12.70;7.43;;;;;;;17.22;100.00;99835.84;5035649;28;20447;-90
2023/08/24 04:41:44;;;;;;;9.20;6.82;;;;;;;17.29;100.00;99844.97;5035243;28;20487;-90
2023/08/24 04:44:09;;;;;;;9.00;6.30;;;;;;;17.37;100.00;99842.66;5052080;28;20045;-89
2023/08/24 04:46:35;;;;;;;7.93;6.22;;;;;;;17.46;100.00;99843.78;5035709;28;20029;-90
2023/08/24 04:49:00;;;;;;;7.85;6.38;;;;;;;17.62;100.00;99843.50;5051861;28;20483;-90
2023/08/24 04:51:27;;;;;;;6.75;5.93;;;;;;;17.74;100.00;99840.03;5052029;28;20143;-90
2023/08/24 04:53:53;;;;;;;7.90;6.60;;;;;;;17.97;100.00;99848.03;5051729;28;20045;-91
2023/08/24 04:56:19;;;;;;;8.10;6.53;;;;;;;18.11;100.00;99845.19;5051945;28;20031;-90
2023/08/24 04:58:55;;;;;;;6.47;5.78;;;;;;;18.31;100.00;99841.91;5051721;28;20029;-90
2023/08/24 05:01:20;;;;;;;6.38;5.78;;;;;;;18.64;100.00;99833.22;5051848;28;20025;-90
2023/08/24 05:03:46;;;;;;;8.30;6.35;;;;;;;19.08;100.00;99849.19;5051594;28;20523;-90
2023/08/24 05:06:11;;;;;;;6.75;5.93;;;;;;;19.27;100.00;99838.88;5040004;28;20132;-90
2023/08/24 05:08:36;;;;;;;6.90;6.20;;;;;;;19.56;100.00;99855.03;5036554;28;20063;-90
2023/08/24 05:11:10;;;;;;;7.88;6.88;;;;;;;20.30;100.00;99839.25;5036216;28;20029;-90
2023/08/24 05:13:36;;;;;;;10.40;6.95;;;;;;;21.40;97.60;99839.53;5036503;28;20108;-90
2023/08/24 05:16:01;;;;;;;8.20;6.60;;;;;;;21.81;95.36;99842.94;5052708;28;20127;-90
2023/08/24 05:18:27;;;;;;;7.93;6.50;;;;;;;21.80;95.15;99850.06;5036143;28;20029;-90
2023/08/24 05:20:52;;;;;;;6.85;6.15;;;;;;;21.73;95.80;99856.03;5036134;28;20029;-90
2023/08/24 05:23:18;;;;;;;10.23;6.85;;;;;;;21.71;96.11;99847.41;5036071;28;20464;-90
2023/08/24 05:25:43;;;;;;;13.68;7.78;;;;;;;21.89;95.58;99843.09;5035713;28;20115;-91
2023/08/24 05:28:10;;;;;;;8.80;6.70;;;;;;;22.45;93.76;99857.44;5031422;28;20122;-94
2023/08/24 05:30:35;;;;;;;9.85;7.05;;;;;;;23.49;89.29;99855.53;5031095;28;20040;-90
2023/08/24 05:33:01;;;;;;;7.75;6.50;;;;;;;24.28;85.54;99853.00;5030898;28;20453;-89
2023/08/24 05:35:27;;;;;;;7.70;7.00;;;;;;;24.43;84.92;99863.94;5031368;28;20025;-90
2023/08/24 05:37:52;;;;;;;10.25;6.95;;;;;;;24.09;85.40;99861.16;5031039;28;20095;-90
2023/08/24 05:40:18;;;;;;;8.68;7.47;;;;;;;23.84;85.77;99860.91;5031331;28;20480;-90
2023/08/24 05:42:43;;;;;;;8.30;6.70;;;;;;;23.73;86.60;99858.50;5030854;28;20040;-90
2023/08/24 05:45:09;;;;;;;8.00;6.15;;;;;;;23.72;86.24;99862.13;5031154;28;20025;-90
2023/08/24 05:47:35;;;;;;;8.55;5.60;;;;;;;23.74;84.37;99862.81;5014426;28;20101;-91
2023/08/24 05:50:00;;;;;;;8.13;5.57;;;;;;;23.77;84.77;99865.19;5030818;28;20116;-90
2023/08/24 05:52:27;;;;;;;5.82;5.22;;;;;;;24.03;84.30;99861.78;5031290;28;20428;-91
2023/08/24 05:54:52;;;;;;;7.30;4.90;;;;;;;24.20;83.82;99860.09;5030605;28;20105;-90
2023/08/24 05:57:18;;;;;;;8.00;5.72;;;;;;;24.14;83.70;99866.84;5030916;28;20041;-91
2023/08/24 05:59:43;;;;;;;5.68;4.47;;;;;;;24.03;82.85;99861.78;5030023;28;20036;-90
2023/08/24 06:02:08;;;;;;;6.38;3.95;;;;;;;24.04;82.66;99863.44;5035040;28;20052;-91
2023/08/24 06:04:34;;;;;;;5.85;4.32;;;;;;;24.08;82.23;99870.13;5035248;28;20039;-90
2023/08/24 06:07:00;;;;;;;8.05;5.57;;;;;;;24.18;82.14;99873.53;5051809;28;20048;-91
2023/08/24 06:09:25;;;;;;;4.75;4.15;;;;;;;24.29;81.18;99869.81;5035358;28;20033;-91
2023/08/24 06:11:51;;;;;;;4.88;4.07;;;;;;;24.39;81.56;99860.75;5035028;28;20029;-91
2023/08/24 06:14:17;;;;;;;4.88;4.38;;;;;;;24.55;80.94;99872.53;5035153;28;20623;-91
2023/08/24 06:16:42;;;;;;;6.60;4.45;;;;;;;24.72;82.29;99870.81;5035007;28;20024;-91
2023/08/24 06:19:08;;;;;;;8.18;5.15;;;;;;;24.94;82.50;99870.25;5030202;28;20044;-90
2023/08/24 06:21:33;;;;;;;10.95;5.95;;;;;;;25.09;81.60;99862.53;5030411;28;20084;-90
2023/08/24 06:24:00;;;;;;;11.18;5.72;;;;;;;25.31;79.74;99877.13;5030218;28;20041;-90
2023/08/24 06:26:26;;;;;;;4.55;4.00;;;;;;;25.36;78.12;99862.31;5030419;28;20030;-91
2023/08/24 06:28:52;;;;;;;7.47;4.32;;;;;;;25.56;77.08;99870.88;5030037;28;20045;-91
2023/08/24 06:31:17;;;;;;;4.75;4.10;;;;;;;25.69;76.92;99861.56;5030313;28;20033;-91
2023/08/24 06:33:43;;;;;;;8.07;4.40;;;;;;;25.90;76.72;99872.66;5013959;28;20560;-91
2023/08/24 06:36:09;;;;;;;4.28;3.88;;;;;;;26.09;76.37;99858.16;5013712;28;20053;-91
2023/08/24 06:38:34;;;;;;;5.35;4.28;;;;;;;26.28;75.79;99860.47;5030196;28;20172;-91
2023/08/24 06:41:00;;;;;;;7.43;4.38;;;;;;;26.47;75.01;99866.53;5029416;28;20033;-91
2023/08/24 06:43:26;;;;;;;4.53;4.00;;;;;;;26.35;73.67;99829.44;5029897;28;20045;-91
2023/08/24 06:45:54;;;;;;;4.68;4.10;;;;;;;26.75;74.00;99870.47;5013109;28;20033;-91
2023/08/24 06:48:19;;;;;;;5.07;4.55;;;;;;;26.98;73.62;99859.06;5013438;28;20515;-90
2023/08/24 06:50:45;;;;;;;6.25;4.10;;;;;;;27.22;73.73;99859.00;5013396;28;20044;-91
2023/08/24 06:53:10;;;;;;;7.63;4.50;;;;;;;27.42;73.20;99850.53;5029612;28;20116;-91
2023/08/24 06:55:37;;;;;;;6.30;4.00;;;;;;;27.66;71.54;99847.72;5013210;28;20125;-90
2023/08/24 06:58:05;;;;;;;6.82;3.67;;;;;;;27.79;70.84;99841.81;5029508;28;20033;-91
2023/08/24 07:00:31;;;;;;;5.03;4.10;;;;;;;28.07;71.03;99850.16;5013212;28;20041;-91
2023/08/24 07:02:57;;;;;;;5.20;3.88;;;;;;;28.35;70.66;99850.38;5012907;28;20124;-91
2023/08/24 07:05:22;;;;;;;4.80;4.00;;;;;;;28.62;69.14;99851.69;5012980;28;20045;-91
2023/08/24 07:07:50;;;;;;;5.18;3.35;;;;;;;28.76;66.76;99829.41;5013157;28;20037;-91
2023/08/24 07:10:15;;;;;;;5.35;3.75;;;;;;;29.08;66.86;99852.38;5016850;28;20061;-90
2023/08/24 07:12:41;;;;;;;3.28;2.97;;;;;;;29.39;66.80;99845.94;5037028;28;20119;-90
2023/08/24 07:15:09;;;;;;;3.88;3.03;;;;;;;29.85;65.25;99852.84;5038777;28;20065;-91
2023/08/24 07:17:35;;;;;;;3.60;2.80;;;;;;;30.13;64.89;99850.19;5029697;28;20032;-91
2023/08/24 07:20:00;;;;;;;4.15;3.55;;;;;;;30.58;65.01;99857.84;5050070;28;20044;-90
2023/08/24 07:22:28;;;;;;;5.65;3.72;;;;;;;31.14;62.77;99856.97;5053877;28;20025;-90
2023/08/24 07:24:54;;;;;;;7.20;3.55;;;;;;;31.56;62.64;99852.34;5070315;28;20435;-90
2023/08/24 07:27:20;;;;;;;6.10;3.70;;;;;;;32.14;61.38;99862.66;5053771;28;20021;-90
2023/08/24 07:29:45;;;;;;;5.22;3.58;;;;;;;32.83;60.38;99856.81;5054058;28;20039;-91
2023/08/24 07:32:10;;;;;;;4.32;2.78;;;;;;;33.78;57.94;99866.00;5053567;28;20020;-91
2023/08/24 07:34:36;;;;;;;3.00;2.70;;;;;;;34.75;56.68;99852.97;5070667;28;20070;-91
2023/08/24 07:37:02;;;;;;;3.97;2.80;;;;;;;35.81;54.29;99868.97;5053451;28;20399;-91
2023/08/24 07:39:27;;;;;;;3.17;2.55;;;;;;;36.46;53.62;99863.63;5068851;28;20028;-90
2023/08/24 07:41:52;;;;;;;5.20;3.10;;;;;;;37.15;54.02;99866.50;5050384;28;20025;-91
2023/08/24 07:44:18;;;;;;;3.55;3.08;;;;;;;37.89;53.88;99864.72;5059720;28;20059;-92
2023/08/24 07:46:44;;;;;;;3.60;3.28;;;;;;;38.47;52.96;99865.38;5044979;28;20028;-92
2023/08/24 07:49:09;;;;;;;3.40;3.10;;;;;;;38.98;52.60;99878.91;5042118;28;20068;-92
2023/08/24 07:51:35;;;;;;;4.30;3.25;;;;;;;39.33;51.11;99870.38;5064080;28;20028;-91
2023/08/24 07:54:01;;;;;;;2.58;2.38;;;;;;;39.52;49.28;99865.41;5066305;28;20028;-91
2023/08/24 07:56:26;;;;;;;3.20;2.90;;;;;;;39.63;49.60;99873.44;5045799;28;20423;-91
2023/08/24 07:58:52;;;;;;;3.20;2.90;;;;;;;39.63;48.83;99859.78;5061174;28;20476;-91
2023/08/24 08:01:17;;;;;;;4.93;2.97;;;;;;;39.60;48.02;99878.56;5061604;28;20623;-91
2023/08/24 08:03:42;;;;;;;2.80;2.60;;;;;;;39.30;48.67;99870.88;5060755;28;20033;-91
2023/08/24 08:06:08;;;;;;;3.85;2.80;;;;;;;38.90;48.66;99869.28;5069162;28;20052;-91
2023/08/24 08:08:33;;;;;;;3.78;2.92;;;;;;;38.22;48.79;99873.94;5044795;28;20041;-91
2023/08/24 08:11:00;;;;;;;3.38;3.08;;;;;;;37.14;49.63;99870.28;5045005;28;20033;-91
2023/08/24 08:13:27;;;;;;;7.80;3.20;;;;;;;35.77;51.31;99868.59;5037825;28;20105;-90
2023/08/24 08:15:53;;;;;;;3.25;2.90;;;;;;;34.45;52.62;99865.53;5035947;28;20040;-91
2023/08/24 08:18:18;;;;;;;3.97;3.10;;;;;;;33.43;54.39;99868.25;5036042;28;20115;-91
2023/08/24 08:20:43;;;;;;;7.72;3.30;;;;;;;32.62;55.92;99870.56;5052657;28;20443;-90
2023/08/24 08:23:09;;;;;;;3.88;3.00;;;;;;;31.96;56.73;99868.66;5035590;28;20041;-90
2023/08/24 08:25:34;;;;;;;4.22;3.25;;;;;;;31.32;57.81;99874.47;5052522;28;20132;-91
2023/08/24 08:28:00;;;;;;;4.43;3.03;;;;;;;30.87;59.09;99879.34;5035622;28;20029;-91
2023/08/24 08:30:25;;;;;;;4.18;3.13;;;;;;;30.49;59.75;99877.81;5036685;28;20127;-90
2023/08/24 08:32:52;;;;;;;3.40;3.10;;;;;;;30.08;60.29;99865.03;5036999;28;20025;-91
2023/08/24 08:35:18;;;;;;;4.22;3.17;;;;;;;29.87;61.76;99875.78;5036963;28;20041;-91
2023/08/24 08:37:45;;;;;;;3.78;3.03;;;;;;;29.71;62.10;99874.19;5037090;28;20557;-90
2023/08/24 08:40:11;;;;;;;4.60;3.08;;;;;;;29.50;62.59;99866.91;5036760;28;20819;-91
2023/08/24 08:42:37;;;;;;;5.20;3.20;;;;;;;29.24;63.13;99864.72;5053368;28;20031;-91
2023/08/24 08:45:07;;;;;;;3.25;2.95;;;;;;;29.13;62.89;99869.75;5036577;28;20036;-92
2023/08/24 08:47:33;;;;;;;3.85;3.55;;;;;;;29.00;63.35;99873.09;5036972;28;20021;-91
2023/08/24 08:50:02;;;;;;;3.25;2.95;;;;;;;28.82;64.16;99870.72;5031943;28;20072;-92
2023/08/24 08:52:28;;;;;;;3.70;3.40;;;;;;;28.69;64.04;99876.72;5015704;28;20029;-91
2023/08/24 08:54:54;;;;;;;3.10;2.80;;;;;;;28.49;64.09;99870.25;5015233;28;20042;-91
2023/08/24 08:57:22;;;;;;;3.30;3.00;;;;;;;28.30;64.78;99861.66;5015606;28;20029;-91
2023/08/24 08:59:50;;;;;;;3.65;3.20;;;;;;;28.28;65.31;99868.22;5015430;28;20038;-91
2023/08/24 09:02:18;;;;;;;5.10;3.28;;;;;;;28.20;64.85;99860.25;5015173;28;20052;-91
2023/08/24 09:04:45;;;;;;;4.07;3.30;;;;;;;28.19;64.95;99866.59;5014513;28;20459;-91
2023/08/24 09:07:13;;;;;;;3.45;3.10;;;;;;;28.11;64.98;99867.53;5015355;28;20064;-91
2023/08/24 09:09:39;;;;;;;4.07;3.00;;;;;;;28.01;66.02;99859.72;5015404;28;20041;-91
2023/08/24 09:12:08;;;;;;;3.90;2.90;;;;;;;28.06;66.65;99869.88;5015056;28;20103;-91
2023/08/24 09:14:34;;;;;;;4.40;3.17;;;;;;;27.97;66.44;99862.94;5015230;28;20511;-90
2023/08/24 09:16:59;;;;;;;2.88;2.67;;;;;;;28.00;66.62;99867.94;5014988;28;20033;-91
2023/08/24 09:19:32;;;;;;;3.60;3.30;;;;;;;27.98;66.65;99868.13;5031804;28;20033;-91
2023/08/24 09:21:58;;;;;;;5.93;3.45;;;;;;;27.90;65.57;99857.47;5035502;28;20468;-91
2023/08/24 09:24:32;;;;;;;2.95;2.70;;;;;;;27.81;67.22;99855.84;5052683;28;20071;-91
2023/08/24 09:26:57;;;;;;;5.03;3.30;;;;;;;27.70;66.32;99865.09;5052540;28;20037;-91
2023/08/24 09:29:23;;;;;;;5.68;3.33;;;;;;;27.44;66.04;99832.47;5036173;28;20040;-91
2023/08/24 09:31:50;;;;;;;4.15;3.00;;;;;;;27.41;66.72;99849.69;5036217;28;20032;-92
2023/08/24 09:34:20;;;;;;;4.32;3.92;;;;;;;27.20;66.11;99858.31;5035795;28;20032;-91
2023/08/24 09:36:45;;;;;;;4.70;3.05;;;;;;;27.15;67.27;99855.34;5035780;28;20086;-91
2023/08/24 09:39:12;;;;;;;3.15;2.88;;;;;;;27.16;66.99;99848.97;5035793;28;20025;-91
2023/08/24 09:41:38;;;;;;;3.38;2.72;;;;;;;27.11;69.15;99828.13;5036106;28;20025;-91
2023/08/24 09:44:05;;;;;;;2.88;2.63;;;;;;;27.26;69.63;99835.41;5052215;28;20021;-91
2023/08/24 09:46:30;;;;;;;3.30;2.95;;;;;;;27.38;69.39;99833.16;5035869;28;20029;-91
2023/08/24 09:48:58;;;;;;;3.83;3.42;;;;;;;27.46;68.96;99833.13;5052072;28;20365;-91
2023/08/24 09:51:26;;;;;;;4.35;3.10;;;;;;;27.48;68.89;99829.28;5035589;28;20021;-90
2023/08/24 09:53:58;;;;;;;3.38;3.05;;;;;;;27.55;69.13;99826.72;5035619;28;20071;-91
2023/08/24 09:56:27;;;;;;;4.63;3.58;;;;;;;27.59;66.22;99820.00;5053717;28;20124;-90
2023/08/24 09:58:54;;;;;;;5.28;3.28;;;;;;;27.51;66.50;99820.88;5052312;28;20495;-91
2023/08/24 10:01:21;;;;;;;4.18;3.10;;;;;;;27.41;67.05;99814.94;5035242;28;20032;-91
2023/08/24 10:03:52;;;;;;;3.80;3.40;;;;;;;27.55;67.32;99821.34;5035555;28;20115;-91
2023/08/24 10:06:20;;;;;;;3.10;2.80;;;;;;;27.58;66.63;99821.00;5039396;28;20049;-91
2023/08/24 10:08:51;;;;;;;3.80;2.90;;;;;;;27.58;67.72;99816.50;5035328;28;20119;-91
2023/08/24 10:11:22;;;;;;;5.25;3.08;;;;;;;27.69;67.71;99827.81;5035031;28;20032;-90
2023/08/24 10:13:58;;;;;;;4.38;3.17;;;;;;;27.70;67.96;99805.38;5030731;28;20037;-90
2023/08/24 10:16:24;;;;;;;4.10;3.35;;;;;;;27.71;66.67;99815.91;5013200;28;20033;-91
2023/08/24 10:18:51;;;;;;;3.88;3.17;;;;;;;27.64;66.54;99809.59;5013975;28;20045;-90
2023/08/24 10:21:17;;;;;;;4.82;3.30;;;;;;;27.61;66.92;99804.63;5013712;28;20025;-91
2023/08/24 10:23:45;;;;;;;3.15;2.90;;;;;;;27.70;67.52;99805.38;5013987;28;20079;-91
2023/08/24 10:26:13;;;;;;;6.32;3.13;;;;;;;27.68;67.08;99799.38;5013659;28;20480;-90
2023/08/24 10:28:39;;;;;;;3.40;3.10;;;;;;;27.61;66.58;99799.25;5013881;28;20086;-91
2023/08/24 10:31:05;;;;;;;3.38;3.13;;;;;;;27.65;67.80;99797.06;5030112;28;20157;-92
2023/08/24 10:33:31;;;;;;;3.63;3.22;;;;;;;27.63;66.54;99788.38;5013668;28;20044;-91
2023/08/24 10:35:58;;;;;;;3.70;3.30;;;;;;;27.66;68.48;99793.38;5013738;28;20511;-91
2023/08/24 10:38:34;;;;;;;3.45;3.10;;;;;;;27.67;68.35;99798.53;5129123;27;20124;-91
2023/08/24 10:41:06;;;;;;;3.25;2.95;;;;;;;27.67;66.76;99795.88;5108132;28;20039;-90
2023/08/24 10:43:37;;;;;;;4.65;3.33;;;;;;;27.54;65.01;99791.09;5108616;28;20027;-91
2023/08/24 10:46:03;;;;;;;3.75;2.80;;;;;;;27.42;64.77;99792.50;5108236;28;20032;-90
2023/08/24 10:48:49;;;;;;;4.95;3.25;;;;;;;27.23;65.02;99792.97;5108393;28;20536;-92
2023/08/24 10:51:20;;;;;;;3.95;3.50;;;;;;;27.22;66.09;99786.81;5009975;28;20042;-91
2023/08/24 10:53:50;;;;;;;3.65;3.33;;;;;;;27.19;66.76;99783.66;5010408;28;20409;-91
2023/08/24 10:56:17;;;;;;;3.47;3.17;;;;;;;27.19;67.62;99778.28;4994139;28;20042;-91
2023/08/24 10:58:47;;;;;;;3.42;3.10;;;;;;;27.29;68.10;99785.06;4990371;28;20026;-91
2023/08/24 11:01:21;;;;;;;4.50;3.28;;;;;;;27.30;67.61;99762.66;4990122;28;20125;-91
2023/08/24 11:03:54;;;;;;;3.45;3.15;;;;;;;27.43;67.00;99764.78;4990367;28;20113;-91
2023/08/24 11:06:22;;;;;;;3.20;3.00;;;;;;;27.47;66.67;99760.72;4990079;28;20042;-91
2023/08/24 11:08:48;;;;;;;3.05;2.80;;;;;;;27.59;66.47;99758.47;4990359;28;20046;-91
2023/08/24 11:11:21;;;;;;;11.88;4.18;;;;;;;27.75;68.95;99754.88;4990180;28;20441;-91
2023/08/24 11:14:19;;;;;;;3.60;3.30;;;;;;;27.95;65.73;99750.69;4971726;28;20027;-91
2023/08/24 11:16:46;;;;;;;3.17;2.88;;;;;;;28.03;66.86;99742.56;4986754;28;20034;-91
2023/08/24 11:19:12;;;;;;;3.40;2.92;;;;;;;28.25;65.58;99753.41;4986652;28;20434;-90
2023/08/24 11:21:39;;;;;;;4.00;2.80;;;;;;;28.38;64.71;99744.75;4970593;28;20043;-91
2023/08/24 11:24:06;;;;;;;2.83;2.60;;;;;;;28.52;63.59;99736.72;4970339;28;20130;-91
2023/08/24 11:26:31;;;;;;;3.25;2.78;;;;;;;28.64;64.08;99734.41;4970562;28;20065;-91
2023/08/24 11:28:57;;;;;;;4.10;2.75;;;;;;;28.78;64.00;99727.34;5045835;28;20033;-91